Time;durP1;ratioP1;P1;durP2;ratioP2;P2;SDS_P1;SDS_P2;PMS_P1;PMS_P2;Temp;Humidity;BMP_temperature;BMP_pressure;BME280_temperature;BME280_humidity;BME280_pressure;Samples;Min_cycle;Max_cycle;Signal;HPM_P1;HPM_P2
2021/12/26 00:01:41;;;;;;;9.05;4.85;;;;;;;-1.84;100.00;98161.91;4485752;31;20118;-74
2021/12/26 00:04:13;;;;;;;8.68;5.10;;;;;;;-1.85;100.00;98159.44;4483623;32;20126;-74
2021/12/26 00:06:42;;;;;;;12.90;4.93;;;;;;;-1.81;100.00;98161.75;4484978;31;20092;-74
2021/12/26 00:09:10;;;;;;;11.38;4.93;;;;;;;-1.86;100.00;98158.59;4484775;31;20092;-74
2021/12/26 00:11:37;;;;;;;15.10;5.40;;;;;;;-1.90;100.00;98161.41;4485254;31;20085;-74
2021/12/26 00:14:06;;;;;;;8.48;5.32;;;;;;;-1.84;100.00;98155.97;4484845;31;20124;-74
2021/12/26 00:16:33;;;;;;;10.20;5.62;;;;;;;-1.85;100.00;98155.09;4484965;31;20164;-74
2021/12/26 00:19:00;;;;;;;11.75;5.97;;;;;;;-1.87;100.00;98158.69;4484749;32;20438;-74
2021/12/26 00:21:28;;;;;;;13.65;5.60;;;;;;;-1.83;100.00;98157.63;4484801;31;20084;-74
2021/12/26 00:23:57;;;;;;;11.48;5.12;;;;;;;-1.85;100.00;98156.84;4484711;31;20168;-74
2021/12/26 00:26:30;;;;;;;9.75;4.07;;;;;;;-1.84;100.00;98159.34;4484755;31;20110;-74
2021/12/26 00:28:59;;;;;;;15.50;5.60;;;;;;;-1.85;100.00;98159.44;4484664;31;20080;-74
2021/12/26 00:31:26;;;;;;;12.98;5.22;;;;;;;-1.87;100.00;98158.69;4484577;31;20099;-74
2021/12/26 00:33:54;;;;;;;9.52;4.68;;;;;;;-1.99;100.00;98158.34;4483263;32;20100;-74
2021/12/26 00:36:23;;;;;;;10.55;4.82;;;;;;;-1.94;100.00;98163.25;4484805;31;20100;-74
2021/12/26 00:38:50;;;;;;;7.07;4.50;;;;;;;-1.88;100.00;98164.72;4484240;31;20088;-74
2021/12/26 00:41:17;;;;;;;10.82;4.45;;;;;;;-1.88;100.00;98165.53;4484468;31;20092;-74
2021/12/26 00:43:45;;;;;;;6.32;4.55;;;;;;;-1.92;100.00;98164.03;4484443;31;20104;-74
2021/12/26 00:46:15;;;;;;;8.23;3.90;;;;;;;-2.08;100.00;98163.94;4484435;32;20131;-74
2021/12/26 00:48:43;;;;;;;13.15;5.32;;;;;;;-2.23;100.00;98156.97;4484453;31;20600;-74
2021/12/26 00:51:10;;;;;;;10.57;4.05;;;;;;;-2.13;100.00;98158.19;4483316;32;20105;-74
2021/12/26 00:53:38;;;;;;;9.93;4.50;;;;;;;-2.12;100.00;98159.84;4484232;31;20092;-74
2021/12/26 00:56:06;;;;;;;13.00;4.32;;;;;;;-2.07;100.00;98157.09;4484195;31;20454;-73
2021/12/26 00:58:35;;;;;;;11.40;5.75;;;;;;;-2.16;100.00;98173.75;4484217;31;20378;-74
2021/12/26 01:01:03;;;;;;;18.40;5.53;;;;;;;-2.22;100.00;98171.47;4494417;31;20104;-74
2021/12/26 01:03:31;;;;;;;10.75;4.30;;;;;;;-2.22;100.00;98168.91;4499635;31;20118;-74
2021/12/26 01:05:59;;;;;;;10.50;4.50;;;;;;;-2.33;100.00;98172.78;4499870;31;20911;-74
2021/12/26 01:08:30;;;;;;;8.90;4.20;;;;;;;-2.15;100.00;98168.53;4500033;31;20096;-73
2021/12/26 01:11:06;;;;;;;12.23;5.47;;;;;;;-2.10;100.00;98173.44;4499818;31;20080;-74
2021/12/26 01:13:37;;;;;;;13.05;5.90;;;;;;;-2.15;100.00;98167.69;4500027;31;20118;-74
2021/12/26 01:16:09;;;;;;;12.37;4.47;;;;;;;-2.01;100.00;98169.63;4500097;31;20789;-74
2021/12/26 01:18:52;;;;;;;14.85;4.97;;;;;;;-2.06;100.00;98174.97;4498721;31;20092;-74
2021/12/26 01:21:22;;;;;;;10.35;5.30;;;;;;;-2.26;100.00;98167.38;4499624;31;20152;-74
2021/12/26 01:23:58;;;;;;;13.48;4.35;;;;;;;-2.30;100.00;98173.53;4499852;31;20096;-74
2021/12/26 01:26:27;;;;;;;7.97;4.22;;;;;;;-2.24;100.00;98175.81;4499825;31;20137;-74
2021/12/26 01:28:54;;;;;;;7.12;4.07;;;;;;;-2.15;100.00;98188.22;4499525;31;20537;-74
2021/12/26 01:31:22;;;;;;;10.20;4.35;;;;;;;-2.20;100.00;98188.44;4499712;31;20206;-74
2021/12/26 01:33:54;;;;;;;7.97;3.92;;;;;;;-2.25;100.00;98192.13;4499520;31;20084;-74
2021/12/26 01:36:25;;;;;;;8.97;4.00;;;;;;;-2.18;100.00;98196.06;4499419;31;20456;-74
2021/12/26 01:38:56;;;;;;;7.28;3.50;;;;;;;-2.22;100.00;98192.81;4501542;31;20218;-74
2021/12/26 01:41:26;;;;;;;7.40;4.10;;;;;;;-2.17;100.00;98187.47;4501892;31;20143;-74
2021/12/26 01:43:57;;;;;;;10.75;3.08;;;;;;;-2.29;100.00;98190.59;4501748;31;20085;-74
2021/12/26 01:46:26;;;;;;;7.22;3.70;;;;;;;-2.15;100.00;98188.22;4502117;31;20110;-74
2021/12/26 01:49:08;;;;;;;9.50;4.45;;;;;;;-2.27;100.00;98183.66;4501836;31;20096;-74
2021/12/26 01:51:36;;;;;;;8.27;4.03;;;;;;;-2.26;100.00;98181.03;4502063;31;20362;-74
2021/12/26 01:54:08;;;;;;;7.80;4.07;;;;;;;-2.27;100.00;98189.63;4501465;31;20894;-74
2021/12/26 01:56:38;;;;;;;9.48;2.90;;;;;;;-2.25;100.00;98185.25;4463433;31;1188697;-74
2021/12/26 01:59:07;;;;;;;12.30;4.37;;;;;;;-2.41;100.00;98180.00;4501875;31;20163;-74
2021/12/26 02:01:36;;;;;;;7.57;3.78;;;;;;;-2.37;100.00;98181.53;4487682;31;20197;-74
2021/12/26 02:04:04;;;;;;;7.05;3.87;;;;;;;-2.32;100.00;98181.31;4485943;31;20119;-74
2021/12/26 02:06:32;;;;;;;8.73;4.20;;;;;;;-2.40;100.00;98183.41;4485908;31;20529;-74
2021/12/26 02:09:00;;;;;;;12.90;4.28;;;;;;;-2.28;100.00;98172.56;4485707;31;20178;-74
2021/12/26 02:11:28;;;;;;;12.93;4.85;;;;;;;-2.15;100.00;98170.25;4486030;31;20607;-74
2021/12/26 02:13:56;;;;;;;7.68;4.15;;;;;;;-2.11;100.00;98166.63;4485936;31;20147;-74
2021/12/26 02:16:24;;;;;;;9.43;4.53;;;;;;;-2.11;100.00;98171.78;4486061;31;20126;-74
2021/12/26 02:18:52;;;;;;;11.15;4.75;;;;;;;-2.08;100.00;98174.19;4484521;32;20587;-74
2021/12/26 02:24:08;;;;;;;11.90;4.57;;;;;;;-2.14;100.00;98164.22;4486034;31;20088;-74
2021/12/26 02:29:21;;;;;;;8.38;4.57;;;;;;;-2.24;100.00;98180.94;4485844;31;20084;-74
2021/12/26 02:31:48;;;;;;;10.48;4.90;;;;;;;-2.29;100.00;98185.47;4485743;31;20119;-74
2021/12/26 02:34:16;;;;;;;10.80;5.20;;;;;;;-2.22;100.00;98177.41;4485503;31;20096;-74
2021/12/26 02:36:44;;;;;;;14.23;5.78;;;;;;;-2.22;100.00;98172.28;4485603;31;20152;-74
2021/12/26 02:39:11;;;;;;;10.43;4.15;;;;;;;-2.27;100.00;98187.06;4485646;31;20153;-74
2021/12/26 02:41:38;;;;;;;11.82;5.18;;;;;;;-2.27;100.00;98186.22;4485663;31;20096;-74
2021/12/26 02:44:06;;;;;;;6.97;4.47;;;;;;;-2.32;100.00;98181.31;4485641;31;20149;-74
2021/12/26 02:46:35;;;;;;;10.45;4.37;;;;;;;-2.28;100.00;98182.00;4485561;31;20096;-74
2021/12/26 02:49:03;;;;;;;12.25;4.87;;;;;;;-2.34;100.00;98189.06;4484811;31;20119;-74
2021/12/26 02:51:30;;;;;;;10.13;4.30;;;;;;;-2.25;100.00;98180.13;4485730;31;20139;-74
2021/12/26 02:53:58;;;;;;;8.30;4.05;;;;;;;-2.23;100.00;98180.88;4485391;31;20127;-74
2021/12/26 02:56:25;;;;;;;9.60;5.10;;;;;;;-2.29;100.00;98180.34;4485745;31;20126;-74
2021/12/26 02:58:52;;;;;;;8.00;4.12;;;;;;;-2.14;100.00;98170.16;4485433;31;20105;-74
2021/12/26 03:01:23;;;;;;;8.30;4.60;;;;;;;-2.10;100.00;98177.75;4497728;31;20481;-74
2021/12/26 03:03:51;;;;;;;12.68;4.93;;;;;;;-2.02;100.00;98189.31;4501482;31;20111;-74
2021/12/26 03:06:28;;;;;;;9.70;4.32;;;;;;;-2.00;100.00;98192.66;4501169;31;20080;-74
2021/12/26 03:08:56;;;;;;;13.13;4.68;;;;;;;-1.99;100.00;98198.59;4501139;31;20084;-74
2021/12/26 03:11:23;;;;;;;9.50;4.75;;;;;;;-1.99;100.00;98194.28;4500980;31;20092;-74
2021/12/26 03:13:50;;;;;;;7.20;4.03;;;;;;;-1.95;100.00;98197.56;4501124;31;20145;-74
2021/12/26 03:16:17;;;;;;;8.35;4.68;;;;;;;-1.89;100.00;98196.41;4501189;31;20099;-74
2021/12/26 03:18:45;;;;;;;10.15;3.97;;;;;;;-1.96;100.00;98193.31;4501007;31;20492;-74
2021/12/26 03:21:12;;;;;;;7.80;4.40;;;;;;;-1.87;100.00;98194.63;4501146;31;20076;-74
2021/12/26 03:23:40;;;;;;;7.55;4.60;;;;;;;-1.82;100.00;98203.78;4501017;31;20117;-74
2021/12/26 03:26:07;;;;;;;8.10;4.05;;;;;;;-1.80;100.00;98199.38;4501170;31;20110;-74
2021/12/26 03:28:34;;;;;;;8.10;4.45;;;;;;;-1.72;100.00;98198.19;4501428;31;20100;-74
2021/12/26 03:31:02;;;;;;;11.23;4.03;;;;;;;-1.66;100.00;98192.75;4501237;31;20092;-74
2021/12/26 03:33:30;;;;;;;17.40;3.28;;;;;;;-1.60;100.00;98189.88;4500839;31;20123;-74
2021/12/26 03:35:58;;;;;;;8.15;3.50;;;;;;;-1.69;100.00;98187.78;4501002;31;20814;-74
2021/12/26 03:38:28;;;;;;;4.47;2.47;;;;;;;-1.71;100.00;98197.25;4500904;31;20092;-74
2021/12/26 03:40:57;;;;;;;5.87;2.72;;;;;;;-1.66;100.00;98196.16;4501358;31;20144;-74
2021/12/26 03:43:25;;;;;;;5.65;2.50;;;;;;;-1.68;100.00;98192.84;4501098;31;20167;-74
2021/12/26 03:45:53;;;;;;;4.65;2.28;;;;;;;-1.69;100.00;98186.03;4501013;31;20417;-74
2021/12/26 03:48:23;;;;;;;4.28;2.25;;;;;;;-1.77;100.00;98177.88;4500888;31;20164;-74
2021/12/26 03:50:51;;;;;;;5.07;2.12;;;;;;;-1.85;100.00;98185.09;4501145;31;20088;-74
2021/12/26 03:53:18;;;;;;;4.68;2.65;;;;;;;-1.77;100.00;98182.16;4501249;31;20157;-74
2021/12/26 03:55:46;;;;;;;5.45;2.60;;;;;;;-1.76;100.00;98182.09;4500905;31;20111;-74
2021/12/26 03:58:13;;;;;;;5.97;2.95;;;;;;;-1.81;100.00;98189.19;4500645;31;20148;-74
2021/12/26 04:00:43;;;;;;;6.25;2.10;;;;;;;-1.78;100.00;98186.47;4492513;31;20122;-74
2021/12/26 04:03:11;;;;;;;7.00;1.95;;;;;;;-1.77;100.00;98188.16;4484993;31;20107;-74
2021/12/26 04:05:39;;;;;;;4.55;2.28;;;;;;;-1.70;100.00;98179.22;4485259;31;20467;-74
2021/12/26 04:08:06;;;;;;;4.12;2.40;;;;;;;-1.71;99.99;98179.28;4484727;32;20501;-74
2021/12/26 04:10:34;;;;;;;5.03;2.22;;;;;;;-1.79;100.00;98179.66;4485018;31;20109;-74
2021/12/26 04:13:01;;;;;;;3.10;2.10;;;;;;;-1.81;100.00;98178.91;4484806;31;20153;-74
2021/12/26 04:15:29;;;;;;;4.32;2.20;;;;;;;-1.81;100.00;98181.47;4484776;31;20099;-74
2021/12/26 04:17:57;;;;;;;5.30;2.15;;;;;;;-1.77;99.87;98187.28;4485253;31;20087;-74
2021/12/26 04:20:26;;;;;;;3.42;2.03;;;;;;;-1.80;99.57;98189.13;4484966;31;20676;-74
2021/12/26 04:22:53;;;;;;;3.50;1.95;;;;;;;-1.78;99.59;98186.47;4484820;31;20104;-74
2021/12/26 04:25:22;;;;;;;5.10;2.28;;;;;;;-1.88;99.36;98198.09;4484986;31;20088;-74
2021/12/26 04:27:50;;;;;;;5.87;1.80;;;;;;;-1.86;99.05;98199.69;4484701;31;20080;-74
2021/12/26 04:30:18;;;;;;;4.35;2.20;;;;;;;-1.70;97.27;98193.81;4485022;32;20119;-74
2021/12/26 04:32:46;;;;;;;5.55;2.50;;;;;;;-1.72;97.52;98195.63;4484832;31;20142;-74
2021/12/26 04:35:15;;;;;;;3.62;1.73;;;;;;;-1.77;97.04;98200.97;4484665;31;20948;-74
2021/12/26 04:37:42;;;;;;;4.03;1.77;;;;;;;-1.78;97.19;98212.16;4484690;31;20160;-74
2021/12/26 04:40:13;;;;;;;6.12;1.52;;;;;;;-1.75;96.54;98208.59;4484474;31;20447;-74
2021/12/26 04:42:45;;;;;;;3.37;1.83;;;;;;;-1.82;96.90;98210.63;4484410;31;20088;-74
2021/12/26 04:45:14;;;;;;;3.33;1.83;;;;;;;-1.91;96.78;98211.06;4484681;31;20114;-74
2021/12/26 04:47:44;;;;;;;4.37;2.03;;;;;;;-1.82;96.23;98221.75;4484639;32;20152;-74
2021/12/26 04:50:15;;;;;;;4.57;1.80;;;;;;;-1.79;95.44;98228.44;4484649;31;20084;-74
2021/12/26 04:52:44;;;;;;;8.82;1.40;;;;;;;-1.96;94.70;98229.25;4484682;31;20161;-74
2021/12/26 04:55:16;;;;;;;3.05;1.35;;;;;;;-2.00;93.40;98228.56;4484659;31;20676;-74
2021/12/26 04:57:43;;;;;;;1.83;1.30;;;;;;;-1.92;93.45;98228.22;4484421;31;20103;-74
2021/12/26 05:00:14;;;;;;;3.22;1.30;;;;;;;-1.91;92.07;98221.34;4489005;31;20525;-74
2021/12/26 05:02:41;;;;;;;2.08;1.30;;;;;;;-1.91;91.61;98226.47;4500266;31;20084;-74
2021/12/26 05:05:10;;;;;;;2.33;1.30;;;;;;;-1.97;90.19;98233.56;4499825;31;20104;-74
2021/12/26 05:07:38;;;;;;;2.47;1.52;;;;;;;-1.94;89.78;98234.31;4499952;31;20139;-74
2021/12/26 05:10:07;;;;;;;2.80;1.58;;;;;;;-1.94;88.43;98230.00;4499694;31;20096;-74
2021/12/26 05:12:36;;;;;;;3.03;1.58;;;;;;;-1.91;87.86;98240.13;4500509;31;20096;-74
2021/12/26 05:15:05;;;;;;;3.72;1.40;;;;;;;-1.93;87.67;98239.38;4501905;31;20156;-74
2021/12/26 05:17:32;;;;;;;3.35;0.95;;;;;;;-1.98;85.47;98239.59;4499561;31;20151;-74
2021/12/26 05:20:00;;;;;;;3.37;1.17;;;;;;;-2.05;84.87;98245.91;4500710;31;20080;-74
2021/12/26 05:22:27;;;;;;;2.87;1.02;;;;;;;-2.02;84.73;98250.91;4501979;31;20448;-74
2021/12/26 05:24:55;;;;;;;2.00;1.08;;;;;;;-2.14;84.33;98246.34;4502109;31;20143;-74
2021/12/26 05:27:24;;;;;;;2.10;1.10;;;;;;;-2.14;84.62;98246.34;4502309;31;20104;-74
2021/12/26 05:29:51;;;;;;;2.60;1.23;;;;;;;-2.18;84.53;98260.19;4501917;31;20088;-74
2021/12/26 05:32:18;;;;;;;3.40;1.12;;;;;;;-2.29;85.23;98270.13;4502248;31;20122;-74
2021/12/26 05:34:47;;;;;;;4.05;1.20;;;;;;;-2.19;83.88;98261.13;4501803;31;20454;-74
2021/12/26 05:37:17;;;;;;;1.90;0.75;;;;;;;-2.11;83.17;98268.47;4502251;31;20091;-74
2021/12/26 05:39:45;;;;;;;1.58;0.80;;;;;;;-2.02;82.82;98271.44;4501968;31;20118;-74
2021/12/26 05:42:15;;;;;;;5.53;0.95;;;;;;;-1.94;82.11;98268.50;4501795;31;20440;-74
2021/12/26 05:44:43;;;;;;;2.62;1.05;;;;;;;-1.90;80.74;98270.03;4501924;31;20195;-74
2021/12/26 05:47:11;;;;;;;1.83;0.98;;;;;;;-1.84;81.72;98279.19;4502063;31;20167;-74
2021/12/26 05:49:41;;;;;;;1.87;0.95;;;;;;;-1.81;80.33;98273.91;4502124;31;20084;-74
2021/12/26 05:52:10;;;;;;;2.45;1.23;;;;;;;-1.65;78.32;98281.72;4501973;31;20116;-74
2021/12/26 05:54:38;;;;;;;3.47;1.00;;;;;;;-1.73;77.96;98276.94;4501999;31;20091;-74
2021/12/26 05:57:06;;;;;;;2.95;1.12;;;;;;;-1.91;77.56;98277.81;4501724;31;20088;-74
2021/12/26 05:59:33;;;;;;;2.35;0.73;;;;;;;-1.83;77.24;98291.13;4501887;31;20106;-74
2021/12/26 06:02:00;;;;;;;2.95;0.82;;;;;;;-1.85;77.54;98286.03;4501546;31;20092;-74
2021/12/26 06:04:28;;;;;;;2.65;1.05;;;;;;;-1.96;75.97;98285.72;4501916;31;20118;-74
2021/12/26 06:06:57;;;;;;;2.50;0.85;;;;;;;-2.01;75.55;98291.06;4502020;31;20119;-74
2021/12/26 06:09:26;;;;;;;2.15;0.80;;;;;;;-2.02;74.77;98293.72;4501836;31;20104;-74
2021/12/26 06:11:53;;;;;;;2.95;1.00;;;;;;;-1.86;74.75;98293.81;4501991;31;20118;-74
2021/12/26 06:14:20;;;;;;;3.60;1.33;;;;;;;-2.08;74.08;98294.81;4501699;31;20122;-74
2021/12/26 06:16:48;;;;;;;2.00;0.80;;;;;;;-1.99;73.74;98291.81;4501941;31;20151;-74
2021/12/26 06:19:15;;;;;;;2.65;0.93;;;;;;;-2.08;72.63;98302.50;4501786;31;20118;-74
2021/12/26 06:21:44;;;;;;;2.78;1.40;;;;;;;-2.05;73.19;98307.50;4501673;31;20476;-74
2021/12/26 06:24:13;;;;;;;2.33;1.17;;;;;;;-2.14;72.71;98305.34;4501547;31;20076;-74
2021/12/26 06:26:43;;;;;;;3.70;1.17;;;;;;;-2.23;71.19;98308.34;4501618;31;20091;-74
2021/12/26 06:29:10;;;;;;;3.00;0.80;;;;;;;-2.10;70.83;98309.47;4501842;31;20473;-74
2021/12/26 06:31:42;;;;;;;2.70;0.70;;;;;;;-2.11;70.46;98305.22;4501740;31;20135;-74
2021/12/26 06:34:12;;;;;;;2.90;1.00;;;;;;;-2.11;69.73;98310.34;4501629;31;20091;-74
2021/12/26 06:36:42;;;;;;;2.17;0.98;;;;;;;-1.93;69.37;98316.37;4501599;31;20106;-74
2021/12/26 06:39:16;;;;;;;2.20;0.85;;;;;;;-1.98;71.11;98315.78;4501738;31;20087;-74
2021/12/26 06:41:47;;;;;;;2.37;0.80;;;;;;;-1.99;69.53;98308.97;4501614;31;20130;-74
2021/12/26 06:44:19;;;;;;;1.05;0.50;;;;;;;-1.90;70.11;98310.28;4501557;31;20118;-74
2021/12/26 06:46:47;;;;;;;1.65;0.80;;;;;;;-1.84;69.17;98321.09;4501603;31;20858;-74
2021/12/26 06:49:17;;;;;;;1.65;0.68;;;;;;;-1.90;69.75;98329.06;4501548;31;20091;-74
2021/12/26 06:51:45;;;;;;;1.80;0.77;;;;;;;-1.84;69.72;98327.97;4501341;31;20418;-74
2021/12/26 06:54:12;;;;;;;2.60;1.30;;;;;;;-1.70;69.03;98328.16;4501562;31;20096;-74
2021/12/26 06:56:40;;;;;;;3.28;1.20;;;;;;;-1.68;68.64;98331.50;4501265;31;20096;-74
2021/12/26 06:59:08;;;;;;;2.75;0.85;;;;;;;-1.77;69.12;98320.81;4501409;31;20118;-75
2021/12/26 07:01:35;;;;;;;4.80;1.12;;;;;;;-1.71;67.41;98331.66;4501301;31;20119;-74
2021/12/26 07:04:03;;;;;;;3.97;1.80;;;;;;;-1.81;68.37;98336.34;4501374;31;20118;-74
2021/12/26 07:06:32;;;;;;;4.10;2.25;;;;;;;-1.77;69.79;98333.66;4501399;31;20427;-74
2021/12/26 07:09:00;;;;;;;3.78;1.77;;;;;;;-1.71;69.35;98336.78;4501602;31;20092;-74
2021/12/26 07:11:27;;;;;;;4.82;1.73;;;;;;;-1.61;68.53;98350.84;4501674;31;20157;-74
2021/12/26 07:13:56;;;;;;;3.17;1.23;;;;;;;-1.51;67.73;98348.69;4501460;31;20131;-74
2021/12/26 07:16:24;;;;;;;3.67;0.80;;;;;;;-1.54;66.91;98345.44;4501165;31;20513;-75
2021/12/26 07:18:51;;;;;;;2.78;1.20;;;;;;;-1.58;67.89;98347.31;4501145;31;20155;-74
2021/12/26 07:21:19;;;;;;;4.68;1.33;;;;;;;-1.66;68.28;98349.41;4501562;31;20108;-74
2021/12/26 07:23:47;;;;;;;3.35;1.02;;;;;;;-1.57;68.77;98353.28;4501446;31;20099;-74
2021/12/26 07:26:14;;;;;;;2.83;1.23;;;;;;;-1.51;67.20;98353.00;4501226;31;20536;-74
2021/12/26 07:28:42;;;;;;;2.40;1.02;;;;;;;-1.51;67.13;98353.81;4501231;31;20103;-74
2021/12/26 07:31:10;;;;;;;3.95;1.92;;;;;;;-1.51;67.23;98366.66;4501394;31;20096;-74
2021/12/26 07:33:38;;;;;;;1.95;1.30;;;;;;;-1.47;67.33;98357.06;4501341;31;20445;-74
2021/12/26 07:36:06;;;;;;;4.72;2.12;;;;;;;-1.36;66.02;98367.69;4500515;31;20473;-74
2021/12/26 07:38:34;;;;;;;7.20;2.85;;;;;;;-1.30;64.90;98367.41;4501022;31;20088;-74
2021/12/26 07:41:20;;;;;;;4.37;2.45;;;;;;;-1.34;65.44;98365.88;4501151;31;20096;-74
2021/12/26 07:43:48;;;;;;;3.62;2.08;;;;;;;-1.32;65.41;98364.09;4500998;31;20096;-74
2021/12/26 07:46:18;;;;;;;5.95;1.83;;;;;;;-1.26;65.43;98363.78;4501181;31;20163;-74
2021/12/26 07:48:46;;;;;;;2.62;1.02;;;;;;;-1.15;66.13;98359.84;4501202;31;20099;-74
2021/12/26 07:51:18;;;;;;;3.35;1.05;;;;;;;-1.03;64.51;98359.28;4501394;31;20097;-74
2021/12/26 07:54:01;;;;;;;1.85;0.88;;;;;;;-0.86;64.23;98365.31;4501035;31;20125;-74
2021/12/26 07:56:44;;;;;;;1.60;0.73;;;;;;;-0.55;63.21;98370.59;4500970;31;20113;-74
2021/12/26 07:59:25;;;;;;;1.83;0.80;;;;;;;-0.88;62.52;98367.12;4501048;31;20430;-74
2021/12/26 08:02:07;;;;;;;0.88;0.60;;;;;;;-0.71;63.74;98382.59;4485083;32;20101;-74
2021/12/26 08:04:39;;;;;;;2.87;1.02;;;;;;;-0.54;63.62;98379.97;4484954;31;20156;-74
2021/12/26 08:07:07;;;;;;;4.65;1.37;;;;;;;-0.61;62.90;98376.06;4485040;31;20118;-74
2021/12/26 08:09:34;;;;;;;4.60;1.10;;;;;;;-0.47;62.01;98377.09;4484812;31;20096;-74
2021/12/26 08:12:02;;;;;;;5.10;1.70;;;;;;;-0.37;63.14;98378.31;4485021;32;20104;-75
2021/12/26 08:14:29;;;;;;;3.30;1.70;;;;;;;-0.33;61.60;98379.81;4485004;31;20118;-74
2021/12/26 08:16:56;;;;;;;2.12;1.20;;;;;;;-0.35;62.02;98371.31;4485069;31;20119;-74
2021/12/26 08:19:24;;;;;;;2.40;1.10;;;;;;;-0.31;61.48;98367.69;4485225;32;20110;-74
2021/12/26 08:21:52;;;;;;;1.05;0.70;;;;;;;-0.36;60.45;98369.69;4484756;31;20139;-75
2021/12/26 08:24:19;;;;;;;4.93;1.12;;;;;;;-0.30;60.60;98371.94;4484920;31;20096;-75
2021/12/26 08:26:51;;;;;;;2.10;0.68;;;;;;;-0.23;58.31;98370.72;4484733;31;20108;-74
2021/12/26 08:29:21;;;;;;;2.95;1.20;;;;;;;-0.17;58.59;98371.31;4484837;31;20099;-74
2021/12/26 08:31:54;;;;;;;1.98;0.90;;;;;;;-0.27;58.19;98376.94;4484647;31;20092;-74
2021/12/26 08:34:22;;;;;;;2.90;1.02;;;;;;;-0.19;56.83;98386.84;4484601;31;20521;-74
2021/12/26 08:36:58;;;;;;;1.77;0.77;;;;;;;-0.23;57.61;98380.16;4484574;31;20119;-74
2021/12/26 08:39:38;;;;;;;2.37;0.90;;;;;;;-0.19;56.98;98386.84;4484572;31;20148;-75
2021/12/26 08:42:08;;;;;;;3.25;1.10;;;;;;;-0.02;57.34;98388.53;4484699;31;20115;-74
2021/12/26 08:44:36;;;;;;;3.15;0.90;;;;;;;0.12;56.68;98391.22;4484479;31;20114;-75
2021/12/26 08:47:05;;;;;;;2.80;1.12;;;;;;;0.21;55.68;98394.22;4484800;31;20110;-74
2021/12/26 08:49:32;;;;;;;3.62;1.48;;;;;;;0.10;55.48;98397.34;4485247;32;20088;-75
2021/12/26 08:52:00;;;;;;;2.85;1.37;;;;;;;0.29;54.88;98386.94;4486331;31;20123;-75
2021/12/26 08:54:29;;;;;;;2.12;0.93;;;;;;;0.32;55.82;98386.75;4486343;31;20097;-74
2021/12/26 08:56:57;;;;;;;3.30;1.15;;;;;;;0.37;54.67;98384.75;4485967;31;20508;-74
2021/12/26 08:59:29;;;;;;;2.37;1.52;;;;;;;0.23;55.16;98377.78;4486478;31;20115;-75
2021/12/26 09:01:58;;;;;;;4.12;1.37;;;;;;;0.21;54.58;98381.34;4486683;31;20085;-75
2021/12/26 09:04:26;;;;;;;6.30;1.15;;;;;;;-0.04;55.10;98378.31;4485038;32;20088;-74
2021/12/26 09:06:53;;;;;;;2.95;1.10;;;;;;;-0.05;54.14;98376.63;4486349;31;20169;-74
2021/12/26 09:09:20;;;;;;;1.90;1.25;;;;;;;-0.16;55.48;98367.84;4486419;31;20115;-74
2021/12/26 09:11:48;;;;;;;3.95;1.15;;;;;;;-0.15;56.47;98367.75;4486436;31;20096;-75
2021/12/26 09:14:15;;;;;;;5.80;1.45;;;;;;;-0.08;54.85;98366.50;4486518;31;20093;-74
2021/12/26 09:16:43;;;;;;;2.25;1.00;;;;;;;-0.08;54.35;98365.69;4486223;31;20159;-74
2021/12/26 09:19:10;;;;;;;4.18;1.65;;;;;;;-0.01;54.16;98369.59;4486507;31;20109;-75
2021/12/26 09:21:37;;;;;;;3.75;1.40;;;;;;;-0.25;52.92;98371.72;4486136;31;20601;-75
2021/12/26 09:24:05;;;;;;;3.55;1.17;;;;;;;-0.14;54.78;98364.25;4486209;31;20093;-74
2021/12/26 09:26:33;;;;;;;5.12;2.10;;;;;;;-0.15;54.88;98367.75;4486162;31;20088;-74
2021/12/26 09:29:00;;;;;;;3.12;1.35;;;;;;;0.06;55.52;98365.78;4486340;31;20088;-74
2021/12/26 09:31:27;;;;;;;4.62;2.15;;;;;;;-0.19;55.67;98361.91;4486321;31;20156;-74
2021/12/26 09:33:55;;;;;;;5.95;2.12;;;;;;;0.02;55.76;98364.28;4485939;31;20100;-74
2021/12/26 09:36:22;;;;;;;5.72;1.90;;;;;;;0.20;55.38;98367.63;4486136;31;20168;-74
2021/12/26 09:38:49;;;;;;;3.42;1.50;;;;;;;0.34;55.00;98377.19;4485958;31;20096;-75
2021/12/26 09:41:17;;;;;;;4.00;1.50;;;;;;;0.41;54.20;98365.66;4486045;31;20126;-74
2021/12/26 09:43:44;;;;;;;5.70;1.80;;;;;;;0.63;53.38;98372.19;4485842;32;20164;-74
2021/12/26 09:46:11;;;;;;;4.22;1.02;;;;;;;0.74;51.96;98367.25;4486006;31;20454;-74
2021/12/26 09:48:39;;;;;;;2.40;1.00;;;;;;;0.84;49.83;98368.41;4485940;32;20458;-74
2021/12/26 09:51:06;;;;;;;1.77;0.80;;;;;;;0.82;48.04;98362.53;4485992;31;20580;-74
2021/12/26 09:53:38;;;;;;;2.62;1.20;;;;;;;0.96;48.07;98354.00;4485979;31;20100;-75
2021/12/26 09:56:07;;;;;;;3.65;1.30;;;;;;;0.95;50.37;98356.69;4485939;31;20144;-74
2021/12/26 09:58:35;;;;;;;2.95;1.20;;;;;;;1.07;47.51;98355.97;4485621;31;20525;-74
2021/12/26 10:01:02;;;;;;;2.58;0.93;;;;;;;1.12;46.23;98346.25;4496056;31;20103;-74
2021/12/26 10:03:36;;;;;;;2.47;1.10;;;;;;;1.09;46.68;98351.56;4501867;31;20157;-74
2021/12/26 10:06:17;;;;;;;1.85;0.82;;;;;;;1.09;47.78;98346.41;4501597;31;20084;-75
2021/12/26 10:08:56;;;;;;;3.10;0.73;;;;;;;1.10;45.98;98350.62;4501928;31;20088;-75
2021/12/26 10:11:40;;;;;;;1.92;0.90;;;;;;;1.36;46.92;98348.31;4501529;31;20096;-75
2021/12/26 10:14:15;;;;;;;3.80;1.40;;;;;;;1.41;45.33;98348.88;4501488;31;20147;-75
2021/12/26 10:16:48;;;;;;;4.72;1.30;;;;;;;1.45;47.20;98357.25;4501636;31;20462;-74
2021/12/26 10:19:16;;;;;;;5.57;1.27;;;;;;;1.55;46.72;98345.47;4501271;31;20433;-75
2021/12/26 10:21:52;;;;;;;4.43;1.40;;;;;;;1.54;45.49;98338.66;4501196;31;20151;-74
2021/12/26 10:24:20;;;;;;;;;;;;;;;1.62;46.04;98349.38;4501511;31;20096;-76
2021/12/26 10:26:50;;;;;;;2.58;1.20;;;;;;;1.52;45.12;98338.75;4501077;31;19975;-75
2021/12/26 10:29:35;;;;;;;3.03;1.05;;;;;;;1.59;45.50;98334.06;4501073;31;20092;-74
2021/12/26 10:32:24;;;;;;;6.72;1.10;;;;;;;1.59;44.20;98334.06;4501234;31;20131;-75
2021/12/26 10:34:54;;;;;;;2.42;1.02;;;;;;;1.81;43.65;98333.59;4500950;31;20532;-75
2021/12/26 10:37:28;;;;;;;1.40;0.90;;;;;;;1.83;43.77;98336.91;4500267;31;20161;-74
2021/12/26 10:39:58;;;;;;;2.90;1.10;;;;;;;1.72;42.49;98329.81;4500924;31;20088;-75
2021/12/26 10:42:31;;;;;;;3.17;0.70;;;;;;;1.83;41.69;98325.75;4501514;31;20088;-74
2021/12/26 10:45:08;;;;;;;2.35;1.10;;;;;;;1.97;42.60;98318.00;4499866;31;20097;-77
2021/12/26 10:47:39;;;;;;;2.78;1.08;;;;;;;1.95;42.90;98327.56;4501391;31;20081;-75
2021/12/26 10:50:12;;;;;;;2.75;0.98;;;;;;;2.01;43.44;98337.53;4501110;31;20096;-74
2021/12/26 10:52:42;;;;;;;4.45;1.25;;;;;;;1.71;41.82;98340.22;4501161;31;20103;-74
2021/12/26 10:55:12;;;;;;;4.80;0.90;;;;;;;1.78;42.47;98333.78;4501031;31;20088;-74
2021/12/26 10:57:41;;;;;;;5.18;0.90;;;;;;;1.85;41.13;98331.66;4499916;31;20088;-74
2021/12/26 11:00:23;;;;;;;2.50;0.90;;;;;;;1.85;39.85;98335.06;4496583;31;20156;-74
2021/12/26 11:02:54;;;;;;;2.25;1.10;;;;;;;1.82;39.05;98334.41;4485469;31;20080;-74
2021/12/26 11:05:24;;;;;;;2.17;0.95;;;;;;;2.06;39.14;98330.34;4484058;32;20088;-74
2021/12/26 11:07:58;;;;;;;2.28;1.10;;;;;;;1.77;39.46;98329.53;4485831;31;20103;-74
2021/12/26 11:10:48;;;;;;;4.12;1.55;;;;;;;2.01;40.19;98324.63;4484412;31;20072;-75
2021/12/26 11:13:31;;;;;;;3.45;1.23;;;;;;;2.20;41.78;98331.25;4485481;32;20169;-75
2021/12/26 11:16:06;;;;;;;3.05;1.10;;;;;;;2.27;40.21;98317.84;4485566;31;20470;-74
2021/12/26 11:18:35;;;;;;;3.87;1.10;;;;;;;2.15;39.60;98326.38;4485604;31;20127;-75
2021/12/26 11:21:06;;;;;;;1.15;0.75;;;;;;;2.08;40.63;98325.09;4485419;31;20118;-75
2021/12/26 11:23:41;;;;;;;2.08;1.00;;;;;;;2.13;40.33;98325.63;4485362;31;20489;-75
2021/12/26 11:26:19;;;;;;;2.00;0.85;;;;;;;2.10;40.62;98330.97;4485283;31;20091;-75
2021/12/26 11:28:50;;;;;;;2.22;0.98;;;;;;;2.13;41.41;98328.19;4485356;31;20076;-74
2021/12/26 11:31:28;;;;;;;1.62;0.93;;;;;;;2.05;41.11;98320.09;4485361;31;20080;-75
2021/12/26 11:34:00;;;;;;;4.10;1.85;;;;;;;2.17;41.92;98319.34;4485441;31;20093;-74
2021/12/26 11:36:29;;;;;;;4.70;1.45;;;;;;;2.21;53.49;98325.16;4485283;31;20128;-74
2021/12/26 11:38:59;;;;;;;3.37;1.58;;;;;;;2.19;55.27;98327.00;4485443;31;20115;-74
2021/12/26 11:42:12;;;;;;;5.22;2.67;;;;;;;2.05;54.75;98330.44;4484429;32;20092;-74
2021/12/26 11:45:32;;;;;;;3.62;1.65;;;;;;;2.19;53.76;98335.56;4483466;32;20108;-74
2021/12/26 11:49:00;;;;;;;6.32;2.40;;;;;;;2.20;54.50;98344.19;4485307;32;20118;-74
2021/12/26 11:52:03;;;;;;;5.25;2.08;;;;;;;1.90;55.60;98343.34;4451814;32;20649;-75